Time;durP1;ratioP1;P1;durP2;ratioP2;P2;SDS_P1;SDS_P2;PMS_P1;PMS_P2;Temp;Humidity;BMP_temperature;BMP_pressure;BME280_temperature;BME280_humidity;BME280_pressure;Samples;Min_cycle;Max_cycle;Signal;HPM_P1;HPM_P2
2022/09/12 00:00:48;;;;;;;31.98;20.85;;;16.20;99.90;;;;;;5007903;28;20057;-56
2022/09/12 00:03:14;;;;;;;27.05;19.77;;;16.20;99.90;;;;;;5012258;28;20061;-50
2022/09/12 00:05:46;;;;;;;29.98;19.38;;;16.20;99.90;;;;;;5011905;28;20018;-47
2022/09/12 00:08:13;;;;;;;25.33;17.90;;;16.20;99.90;;;;;;4998920;28;20030;-49
2022/09/12 00:10:41;;;;;;;24.15;18.05;;;16.10;99.90;;;;;;5011714;28;20188;-44
2022/09/12 00:13:07;;;;;;;24.30;16.95;;;16.10;99.90;;;;;;5011539;28;20021;-44
2022/09/12 00:15:41;;;;;;;21.60;16.15;;;16.00;99.90;;;;;;5011954;28;20112;-49
2022/09/12 00:18:14;;;;;;;22.55;16.17;;;16.00;99.90;;;;;;5011695;28;20048;-44
2022/09/12 00:20:45;;;;;;;22.40;14.85;;;15.90;99.90;;;;;;5011804;28;20080;-48
2022/09/12 00:23:11;;;;;;;22.92;15.27;;;15.90;99.90;;;;;;5011485;28;20488;-44
2022/09/12 00:25:45;;;;;;;22.33;13.68;;;15.80;99.90;;;;;;5011337;28;20160;-47
2022/09/12 00:28:13;;;;;;;21.45;13.45;;;15.80;99.90;;;;;;5011538;28;20014;-51
2022/09/12 00:30:42;;;;;;;20.42;13.45;;;15.80;99.90;;;;;;5011799;28;20064;-44
2022/09/12 00:33:08;;;;;;;20.85;14.50;;;15.70;99.90;;;;;;5011380;28;20018;-44
2022/09/12 00:35:39;;;;;;;26.70;16.13;;;15.70;99.90;;;;;;5011363;28;20099;-45
2022/09/12 00:38:05;;;;;;;24.35;16.90;;;15.70;99.90;;;;;;5010466;28;20393;-53
2022/09/12 00:40:30;;;;;;;24.60;18.17;;;15.70;99.90;;;;;;5011449;28;20022;-44
2022/09/12 00:42:56;;;;;;;25.70;16.80;;;15.80;99.90;;;;;;5011287;28;20037;-45
2022/09/12 00:45:28;;;;;;;25.55;18.67;;;15.80;99.90;;;;;;5011061;28;20076;-44
2022/09/12 00:47:56;;;;;;;23.95;17.45;;;15.80;99.90;;;;;;5011329;28;20524;-48
2022/09/12 00:50:23;;;;;;;25.77;18.15;;;15.80;99.90;;;;;;5011179;28;20037;-50
2022/09/12 00:52:55;;;;;;;24.83;17.60;;;15.90;99.90;;;;;;5011141;28;20088;-48
2022/09/12 00:55:39;;;;;;;26.65;18.83;;;15.90;99.90;;;;;;5010863;28;20042;-47
2022/09/12 00:58:15;;;;;;;28.40;18.60;;;15.90;99.90;;;;;;5003696;28;20070;-45
2022/09/12 01:00:41;;;;;;;24.58;17.25;;;15.90;99.90;;;;;;5006071;28;20142;-45
2022/09/12 01:03:11;;;;;;;30.88;18.60;;;15.90;99.90;;;;;;5011086;28;20026;-44
2022/09/12 01:05:43;;;;;;;27.40;17.10;;;15.90;99.90;;;;;;5011004;28;20650;-49
2022/09/12 01:08:09;;;;;;;25.85;16.50;;;15.90;99.90;;;;;;5011014;28;20026;-50
2022/09/12 01:10:37;;;;;;;21.90;15.02;;;15.90;99.90;;;;;;5010882;28;20069;-48
2022/09/12 01:13:06;;;;;;;21.00;15.10;;;15.80;99.90;;;;;;5010894;28;20021;-48
2022/09/12 01:15:32;;;;;;;23.02;14.95;;;15.80;99.90;;;;;;5010963;28;20049;-44
2022/09/12 01:18:17;;;;;;;19.98;14.15;;;15.80;99.90;;;;;;5011184;28;20545;-54
2022/09/12 01:20:53;;;;;;;18.50;13.05;;;15.70;99.90;;;;;;5010932;28;20469;-48
2022/09/12 01:23:52;;;;;;;18.65;12.40;;;15.70;99.90;;;;;;5010908;28;20096;-49
2022/09/12 01:26:43;;;;;;;17.30;12.52;;;15.60;99.90;;;;;;5010767;28;20119;-49
2022/09/12 01:29:38;;;;;;;22.65;15.30;;;15.60;99.90;;;;;;5010863;28;20026;-54
2022/09/12 01:32:09;;;;;;;24.83;16.52;;;15.60;99.90;;;;;;4998217;28;20517;-49
2022/09/12 01:34:50;;;;;;;26.20;18.23;;;15.60;99.90;;;;;;5010901;28;20033;-52
2022/09/12 01:37:34;;;;;;;28.10;18.35;;;15.60;99.90;;;;;;4998745;28;20453;-51
2022/09/12 01:40:20;;;;;;;32.58;20.67;;;15.70;99.90;;;;;;5010793;28;20034;-46
2022/09/12 01:42:46;;;;;;;30.35;19.40;;;15.70;99.90;;;;;;5010744;28;20444;-51
2022/09/12 01:45:12;;;;;;;33.80;20.05;;;15.70;99.90;;;;;;5010770;28;20018;-54
2022/09/12 01:47:43;;;;;;;28.10;18.83;;;15.80;99.90;;;;;;5010891;28;20034;-46
2022/09/12 01:50:12;;;;;;;24.67;17.02;;;15.80;99.90;;;;;;5013158;28;20120;-53
2022/09/12 01:52:44;;;;;;;25.50;16.10;;;15.80;99.90;;;;;;5014403;28;20021;-48
2022/09/12 01:55:19;;;;;;;22.00;14.40;;;15.80;99.90;;;;;;5014037;28;20186;-48
2022/09/12 01:58:01;;;;;;;20.08;13.40;;;15.70;99.90;;;;;;5009602;28;20031;-45
2022/09/12 02:00:27;;;;;;;17.10;11.52;;;15.70;99.90;;;;;;5007292;28;20029;-46
2022/09/12 02:03:15;;;;;;;19.13;13.07;;;15.70;99.90;;;;;;5014150;28;20033;-47
2022/09/12 02:05:47;;;;;;;23.60;12.95;;;15.70;99.90;;;;;;5014040;28;20154;-52
2022/09/12 02:08:21;;;;;;;18.65;12.50;;;15.70;99.90;;;;;;5014094;28;20026;-46
2022/09/12 02:10:55;;;;;;;24.55;16.38;;;15.60;99.90;;;;;;5013786;28;20049;-46
2022/09/12 02:13:26;;;;;;;23.25;15.95;;;15.60;99.90;;;;;;5013959;28;20014;-45
2022/09/12 02:15:57;;;;;;;24.38;15.65;;;15.60;99.90;;;;;;5013949;28;20026;-51
2022/09/12 02:18:27;;;;;;;25.45;17.33;;;15.60;99.90;;;;;;5013705;28;20041;-49
2022/09/12 02:20:55;;;;;;;24.15;16.90;;;15.60;99.90;;;;;;5013956;28;20022;-47
2022/09/12 02:23:25;;;;;;;25.05;16.60;;;15.60;99.90;;;;;;5013778;28;20026;-43
2022/09/12 02:25:56;;;;;;;24.63;16.00;;;15.60;99.90;;;;;;5011254;28;20026;-43
2022/09/12 02:28:36;;;;;;;21.40;14.88;;;15.60;99.90;;;;;;4994050;28;20053;-47
2022/09/12 02:31:20;;;;;;;24.90;15.38;;;15.70;99.90;;;;;;5004298;28;20123;-46
2022/09/12 02:34:00;;;;;;;19.92;13.48;;;15.70;99.90;;;;;;5013606;28;20026;-45
2022/09/12 02:36:35;;;;;;;17.50;13.00;;;15.70;99.90;;;;;;4999652;28;20041;-43
2022/09/12 02:39:01;;;;;;;19.30;12.48;;;15.70;99.90;;;;;;5013564;28;20037;-47
2022/09/12 02:41:27;;;;;;;16.70;11.27;;;15.70;99.90;;;;;;5013474;28;20029;-52
2022/09/12 02:43:53;;;;;;;18.23;12.25;;;15.70;99.90;;;;;;5003411;28;20034;-46
2022/09/12 02:46:31;;;;;;;16.65;11.95;;;15.70;99.90;;;;;;5009524;28;20470;-45
2022/09/12 02:48:57;;;;;;;16.48;11.77;;;15.60;99.90;;;;;;5013229;28;20037;-53
2022/09/12 02:51:22;;;;;;;17.52;11.93;;;15.60;99.90;;;;;;5012924;28;20401;-50
2022/09/12 02:53:48;;;;;;;18.58;11.77;;;15.50;99.90;;;;;;5013209;28;20026;-45
2022/09/12 02:56:20;;;;;;;15.85;11.68;;;15.50;99.90;;;;;;5012912;28;20033;-49
2022/09/12 02:58:46;;;;;;;16.08;9.88;;;15.50;99.90;;;;;;5013125;28;20127;-46
2022/09/12 03:01:18;;;;;;;15.93;11.00;;;15.50;99.90;;;;;;5000403;28;20604;-50
2022/09/12 03:03:49;;;;;;;13.65;9.93;;;15.50;99.90;;;;;;5012066;28;20485;-50
2022/09/12 03:06:18;;;;;;;10.98;7.80;;;15.50;99.90;;;;;;5012978;28;20481;-49
2022/09/12 03:08:44;;;;;;;11.57;8.40;;;15.40;99.90;;;;;;5012918;28;20138;-44
2022/09/12 03:11:57;;;;;;;13.05;8.45;;;15.40;99.90;;;;;;5012754;28;20058;-48
2022/09/12 03:14:38;;;;;;;9.57;7.38;;;15.30;99.90;;;;;;4992838;28;20036;-46
2022/09/12 03:17:28;;;;;;;9.98;7.43;;;15.30;99.90;;;;;;5012568;28;20065;-52
2022/09/12 03:20:14;;;;;;;11.23;8.40;;;15.20;99.90;;;;;;5012698;28;20034;-45
2022/09/12 03:22:54;;;;;;;13.63;10.10;;;15.20;99.90;;;;;;5012403;28;20029;-45
2022/09/12 03:25:35;;;;;;;14.85;10.82;;;15.20;99.90;;;;;;5012705;28;20065;-48
2022/09/12 03:28:08;;;;;;;19.27;10.35;;;15.10;99.90;;;;;;5012753;28;20029;-49
2022/09/12 03:30:53;;;;;;;16.70;11.20;;;15.10;99.90;;;;;;5012431;28;20052;-56
2022/09/12 03:33:21;;;;;;;15.60;10.82;;;15.10;99.90;;;;;;5012374;28;20030;-48
2022/09/12 03:35:48;;;;;;;17.10;11.30;;;15.10;99.90;;;;;;4998631;28;20031;-48
2022/09/12 03:38:13;;;;;;;20.88;13.32;;;15.10;99.90;;;;;;5012392;28;20040;-50
2022/09/12 03:40:40;;;;;;;20.42;12.77;;;15.10;99.90;;;;;;5012251;28;20022;-44
2022/09/12 03:43:07;;;;;;;20.58;13.27;;;15.20;99.90;;;;;;5012370;28;20030;-46
2022/09/12 03:45:34;;;;;;;17.33;12.93;;;15.20;99.90;;;;;;4994637;28;20057;-52
2022/09/12 03:48:00;;;;;;;19.10;12.93;;;15.30;99.90;;;;;;5012211;28;20037;-54
2022/09/12 03:50:26;;;;;;;16.50;11.65;;;15.30;99.90;;;;;;5012218;28;20026;-55
2022/09/12 03:52:52;;;;;;;16.63;11.95;;;15.30;99.90;;;;;;5011846;28;20037;-50
2022/09/12 03:55:18;;;;;;;13.77;10.10;;;15.30;99.90;;;;;;5012186;28;20389;-51
2022/09/12 03:57:44;;;;;;;13.88;10.50;;;15.40;99.90;;;;;;5011892;28;20385;-47
2022/09/12 04:00:11;;;;;;;13.48;10.45;;;15.40;99.90;;;;;;5012003;28;20045;-45
2022/09/12 04:02:36;;;;;;;14.20;9.60;;;15.40;99.90;;;;;;5011993;28;20033;-47
2022/09/12 04:05:02;;;;;;;13.15;9.88;;;15.40;99.90;;;;;;5011842;28;20381;-44
2022/09/12 04:07:28;;;;;;;16.27;10.63;;;15.40;99.90;;;;;;5011846;28;20036;-50
2022/09/12 04:09:55;;;;;;;14.35;10.02;;;15.40;99.90;;;;;;5011471;28;20041;-44
2022/09/12 04:12:21;;;;;;;17.08;11.15;;;15.40;99.90;;;;;;5011061;28;20096;-53
2022/09/12 04:14:46;;;;;;;13.98;10.63;;;15.50;99.90;;;;;;5011442;28;20037;-43
2022/09/12 04:17:13;;;;;;;12.82;9.70;;;15.50;99.90;;;;;;5011953;28;20037;-44
2022/09/12 04:19:38;;;;;;;15.70;10.10;;;15.60;99.90;;;;;;5011949;28;20028;-48
2022/09/12 04:22:04;;;;;;;14.90;10.70;;;15.60;99.90;;;;;;5011534;28;20467;-49
2022/09/12 04:24:30;;;;;;;16.02;11.43;;;15.60;99.90;;;;;;5011518;28;20021;-45
2022/09/12 04:26:56;;;;;;;16.15;11.70;;;15.60;99.90;;;;;;5011514;28;20385;-48
2022/09/12 04:29:22;;;;;;;14.35;11.38;;;15.60;99.90;;;;;;5011446;28;20101;-49
2022/09/12 04:31:48;;;;;;;13.25;10.23;;;15.60;99.90;;;;;;5011569;28;20034;-43
2022/09/12 04:34:14;;;;;;;13.30;9.55;;;15.60;99.90;;;;;;5008178;28;20022;-46
2022/09/12 04:36:40;;;;;;;15.63;10.55;;;15.70;99.90;;;;;;5000519;28;20061;-45
2022/09/12 04:39:06;;;;;;;12.82;9.30;;;15.60;99.90;;;;;;5011337;28;20037;-49
2022/09/12 04:41:36;;;;;;;11.65;9.35;;;15.60;99.90;;;;;;5011233;28;20021;-49
2022/09/12 04:44:05;;;;;;;13.38;9.45;;;15.60;99.90;;;;;;5011357;28;20026;-48
2022/09/12 04:46:35;;;;;;;11.63;8.88;;;15.50;99.90;;;;;;5011460;28;20095;-50
2022/09/12 04:49:02;;;;;;;13.98;8.95;;;15.50;99.90;;;;;;5011310;28;20040;-49
2022/09/12 04:51:30;;;;;;;9.68;7.20;;;15.50;99.90;;;;;;5011030;28;20021;-50
2022/09/12 04:54:01;;;;;;;10.60;7.65;;;15.50;99.90;;;;;;5011003;28;20034;-48
2022/09/12 04:56:28;;;;;;;12.85;7.38;;;15.50;99.90;;;;;;5010964;28;20029;-49
2022/09/12 04:58:57;;;;;;;11.00;7.72;;;15.50;99.90;;;;;;5011208;28;20037;-50
2022/09/12 05:01:22;;;;;;;10.30;7.73;;;15.50;99.90;;;;;;5010972;28;20030;-52
2022/09/12 05:03:49;;;;;;;10.80;7.72;;;15.50;99.90;;;;;;5011234;28;20030;-47
2022/09/12 05:06:17;;;;;;;11.23;8.18;;;15.50;99.90;;;;;;5011045;28;20037;-44
2022/09/12 05:08:42;;;;;;;12.80;8.75;;;15.50;99.90;;;;;;5010898;28;20056;-47
2022/09/12 05:11:17;;;;;;;10.95;9.25;;;15.60;99.90;;;;;;4993239;28;20045;-49
2022/09/12 05:13:43;;;;;;;17.70;9.45;;;15.60;99.90;;;;;;5010850;28;20018;-48
2022/09/12 05:16:16;;;;;;;13.23;9.13;;;15.60;99.90;;;;;;5010863;28;20075;-49
2022/09/12 05:18:43;;;;;;;11.57;9.18;;;15.60;99.90;;;;;;5010883;28;20030;-51
2022/09/12 05:21:11;;;;;;;11.10;8.90;;;15.60;99.90;;;;;;5010909;28;20026;-47
2022/09/12 05:23:36;;;;;;;13.55;9.13;;;15.70;99.90;;;;;;5010731;28;20033;-44
2022/09/12 05:26:04;;;;;;;11.55;7.95;;;15.70;99.90;;;;;;5014957;28;20474;-47
2022/09/12 05:28:36;;;;;;;9.75;6.97;;;15.80;99.90;;;;;;5014598;28;20033;-49
2022/09/12 05:31:07;;;;;;;16.05;7.40;;;15.80;99.90;;;;;;5006031;28;20441;-47
2022/09/12 05:33:37;;;;;;;9.43;6.35;;;15.80;99.90;;;;;;4995098;28;20113;-49
2022/09/12 05:36:06;;;;;;;11.13;6.50;;;15.80;99.90;;;;;;4999132;28;20053;-50
2022/09/12 05:38:36;;;;;;;10.73;7.30;;;15.80;99.90;;;;;;5014635;28;20066;-49
2022/09/12 05:41:06;;;;;;;9.63;7.30;;;15.80;99.90;;;;;;5014754;28;20024;-49
2022/09/12 05:43:36;;;;;;;11.82;7.55;;;15.80;99.90;;;;;;5014540;28;20499;-44
2022/09/12 05:46:17;;;;;;;9.60;6.68;;;15.80;99.90;;;;;;5014463;28;20022;-50
2022/09/12 05:48:45;;;;;;;9.25;6.40;;;15.80;99.90;;;;;;5014317;28;20117;-45
2022/09/12 05:51:21;;;;;;;8.13;6.10;;;15.80;99.90;;;;;;5014337;28;20063;-47
2022/09/12 05:53:51;;;;;;;8.88;5.07;;;15.80;99.90;;;;;;5014224;28;20018;-49
2022/09/12 05:56:20;;;;;;;6.20;4.90;;;15.90;99.90;;;;;;5013982;28;20022;-46
2022/09/12 05:58:47;;;;;;;11.93;5.40;;;16.00;99.90;;;;;;5014181;28;20045;-54
2022/09/12 06:01:18;;;;;;;6.05;4.32;;;16.00;99.90;;;;;;5013889;28;20022;-51
2022/09/12 06:03:51;;;;;;;6.47;4.90;;;16.10;99.90;;;;;;5014019;28;20029;-49
2022/09/12 06:06:20;;;;;;;8.85;5.50;;;16.10;99.90;;;;;;5013957;28;20141;-48
2022/09/12 06:08:48;;;;;;;10.48;5.78;;;16.20;99.90;;;;;;5014107;28;20057;-50
2022/09/12 06:11:18;;;;;;;8.52;5.10;;;16.20;99.90;;;;;;5013674;28;20046;-47
2022/09/12 06:13:44;;;;;;;9.52;6.68;;;16.30;99.90;;;;;;5013943;28;20026;-45
2022/09/12 06:16:15;;;;;;;7.47;5.57;;;16.30;99.90;;;;;;5014027;28;20080;-45
2022/09/12 06:18:41;;;;;;;8.18;5.88;;;16.40;99.90;;;;;;5013804;28;20049;-44
2022/09/12 06:21:08;;;;;;;10.43;5.70;;;16.50;99.90;;;;;;5013643;28;20079;-50
2022/09/12 06:23:34;;;;;;;10.48;5.50;;;16.60;99.90;;;;;;5013740;28;20038;-46
2022/09/12 06:26:00;;;;;;;7.80;5.05;;;16.80;99.90;;;;;;5013787;28;20033;-50
2022/09/12 06:28:26;;;;;;;12.25;5.65;;;17.00;99.90;;;;;;5013465;28;20034;-48
2022/09/12 06:30:52;;;;;;;9.00;5.20;;;17.10;99.90;;;;;;5013736;28;20033;-48
2022/09/12 06:33:18;;;;;;;7.22;5.47;;;17.40;99.90;;;;;;5013510;28;20032;-49
2022/09/12 06:35:44;;;;;;;7.35;5.43;;;17.50;99.90;;;;;;4998780;28;20037;-44
2022/09/12 06:38:09;;;;;;;6.82;5.25;;;17.60;99.90;;;;;;5013472;28;20120;-49
2022/09/12 06:40:43;;;;;;;10.15;4.93;;;17.80;99.90;;;;;;5012965;28;20524;-54
2022/09/12 06:43:12;;;;;;;7.03;4.78;;;18.00;99.90;;;;;;4982707;28;20037;-50
2022/09/12 06:45:38;;;;;;;6.47;4.32;;;18.10;99.90;;;;;;5013172;28;20492;-47
2022/09/12 06:48:03;;;;;;;7.43;4.40;;;18.20;99.90;;;;;;5013090;28;20108;-47
2022/09/12 06:50:29;;;;;;;7.45;3.53;;;18.40;99.90;;;;;;4999371;28;20022;-44
2022/09/12 06:52:55;;;;;;;6.00;3.65;;;18.50;99.90;;;;;;5012900;28;20030;-52
2022/09/12 06:55:23;;;;;;;6.45;3.30;;;18.60;99.90;;;;;;5012759;28;20435;-47
2022/09/12 06:57:48;;;;;;;6.75;3.70;;;18.70;99.90;;;;;;5012842;28;20034;-49
2022/09/12 07:00:14;;;;;;;8.02;3.83;;;18.70;99.90;;;;;;5012866;28;20026;-47
2022/09/12 07:02:40;;;;;;;7.38;3.53;;;18.70;99.90;;;;;;5012938;28;20112;-44
2022/09/12 07:05:07;;;;;;;7.45;3.47;;;18.80;99.90;;;;;;5012722;28;20029;-44
2022/09/12 07:07:34;;;;;;;6.03;3.25;;;18.80;99.90;;;;;;5012872;28;20041;-48
2022/09/12 07:10:00;;;;;;;3.97;2.80;;;18.90;99.90;;;;;;5012198;28;20057;-50
2022/09/12 07:12:28;;;;;;;5.82;2.95;;;18.90;99.90;;;;;;5012838;28;20500;-50
2022/09/12 07:14:54;;;;;;;6.68;3.28;;;19.00;99.90;;;;;;5012616;28;20023;-50
2022/09/12 07:17:19;;;;;;;5.03;3.05;;;19.00;99.90;;;;;;5012449;28;20404;-44
2022/09/12 07:19:45;;;;;;;6.03;2.80;;;19.20;99.90;;;;;;5012754;28;20033;-47
2022/09/12 07:22:11;;;;;;;3.67;2.75;;;19.20;99.90;;;;;;5012514;28;20493;-47
2022/09/12 07:24:37;;;;;;;6.20;2.47;;;19.40;99.90;;;;;;5012868;28;20147;-44
2022/09/12 07:27:03;;;;;;;5.07;2.45;;;19.80;99.90;;;;;;5012620;28;20496;-48
2022/09/12 07:29:28;;;;;;;5.30;2.80;;;20.20;99.90;;;;;;5008655;28;20022;-45
2022/09/12 07:31:54;;;;;;;5.50;2.42;;;20.90;99.90;;;;;;5005546;28;20109;-48
2022/09/12 07:34:20;;;;;;;7.38;2.00;;;21.80;99.90;;;;;;5009224;28;20084;-51
2022/09/12 07:36:45;;;;;;;4.60;1.98;;;22.50;99.90;;;;;;5011545;28;20028;-49
2022/09/12 07:39:11;;;;;;;3.75;1.90;;;23.30;99.90;;;;;;5010020;28;20610;-52
2022/09/12 07:41:36;;;;;;;5.60;1.50;;;23.50;99.90;;;;;;5003774;28;20036;-45
2022/09/12 07:44:05;;;;;;;1.70;1.35;;;24.00;99.90;;;;;;4998617;28;20043;-51
2022/09/12 07:46:32;;;;;;;4.82;1.92;;;24.60;99.90;;;;;;4992656;28;20044;-53
2022/09/12 07:48:59;;;;;;;4.82;1.65;;;25.10;99.90;;;;;;4992530;28;20114;-49
2022/09/12 07:51:26;;;;;;;3.72;1.67;;;25.10;99.90;;;;;;4991939;28;20042;-49
2022/09/12 07:53:52;;;;;;;3.25;1.50;;;25.30;99.90;;;;;;4992799;28;20339;-46
2022/09/12 07:56:21;;;;;;;2.83;1.25;;;25.60;99.90;;;;;;5002209;28;20112;-45
2022/09/12 07:58:47;;;;;;;6.50;1.42;;;25.80;99.90;;;;;;4998702;28;20034;-43
2022/09/12 08:01:15;;;;;;;3.22;1.42;;;26.30;99.90;;;;;;4992097;28;20077;-45
2022/09/12 08:03:42;;;;;;;;;;;26.30;99.90;;;;;;4992505;28;20109;-48
2022/09/12 08:06:13;;;;;;;5.55;1.60;;;26.60;99.90;;;;;;4991952;28;19916;-46
2022/09/12 08:08:40;;;;;;;4.05;1.30;;;26.60;99.90;;;;;;4991988;28;20374;-46
2022/09/12 08:11:08;;;;;;;3.47;1.10;;;26.90;99.90;;;;;;5003849;28;20050;-52
2022/09/12 08:13:36;;;;;;;3.50;1.40;;;26.90;99.60;;;;;;5006559;28;20022;-49
2022/09/12 08:16:05;;;;;;;4.13;1.30;;;26.50;99.90;;;;;;5010873;28;20029;-46
2022/09/12 08:18:33;;;;;;;3.75;1.33;;;26.20;99.90;;;;;;5002528;28;20038;-49
2022/09/12 08:21:01;;;;;;;3.75;1.30;;;26.20;99.90;;;;;;5009875;28;20020;-46
2022/09/12 08:23:28;;;;;;;5.60;1.33;;;26.80;99.90;;;;;;5006772;28;20065;-48
2022/09/12 08:26:02;;;;;;;3.78;1.63;;;27.50;98.00;;;;;;5003555;28;20430;-52
2022/09/12 08:28:29;;;;;;;3.55;1.35;;;28.00;98.20;;;;;;4991701;28;20436;-50
2022/09/12 08:31:02;;;;;;;2.30;1.08;;;27.70;97.40;;;;;;4991590;28;20054;-45
2022/09/12 08:33:34;;;;;;;4.72;1.60;;;27.60;97.90;;;;;;4991533;28;20580;-52
2022/09/12 08:36:10;;;;;;;3.22;1.40;;;27.10;98.40;;;;;;4995416;28;20022;-48
2022/09/12 08:38:37;;;;;;;4.47;1.50;;;27.60;97.90;;;;;;5010801;28;20489;-45
2022/09/12 08:41:08;;;;;;;4.18;1.30;;;28.50;97.00;;;;;;5011138;28;20037;-54
2022/09/12 08:43:44;;;;;;;2.75;1.10;;;28.90;96.00;;;;;;5000938;28;20026;-48
2022/09/12 08:46:17;;;;;;;4.75;1.42;;;29.60;95.50;;;;;;4991485;28;20026;-52
2022/09/12 08:48:45;;;;;;;3.33;1.38;;;29.90;94.00;;;;;;4991287;28;20390;-49
2022/09/12 08:51:13;;;;;;;3.08;1.23;;;30.10;92.90;;;;;;4991221;28;20022;-52
2022/09/12 08:53:41;;;;;;;4.22;1.20;;;30.00;93.20;;;;;;4991139;28;20069;-45
2022/09/12 08:56:10;;;;;;;4.13;1.38;;;29.40;92.30;;;;;;4990593;28;20034;-46
2022/09/12 08:58:42;;;;;;;5.38;1.40;;;29.50;93.80;;;;;;4990549;28;20046;-48
2022/09/12 09:01:28;;;;;;;3.80;1.45;;;29.70;93.70;;;;;;4991026;28;20027;-45
2022/09/12 09:04:32;;;;;;;3.72;1.35;;;29.50;92.50;;;;;;4991147;28;20030;-55
2022/09/12 09:07:28;;;;;;;4.72;1.10;;;29.40;93.30;;;;;;4991192;28;20485;-45
2022/09/12 09:10:09;;;;;;;2.17;1.00;;;30.20;91.90;;;;;;4995396;28;20046;-47
2022/09/12 09:12:50;;;;;;;4.28;1.35;;;30.70;91.10;;;;;;4990809;28;20408;-44
2022/09/12 09:15:42;;;;;;;5.00;1.30;;;30.70;91.60;;;;;;5001239;28;20042;-44
2022/09/12 09:18:17;;;;;;;3.78;1.30;;;30.80;89.50;;;;;;4991059;28;20042;-46
2022/09/12 09:21:08;;;;;;;5.13;1.38;;;29.70;90.10;;;;;;5003282;28;20088;-48
2022/09/12 09:23:43;;;;;;;2.72;1.60;;;29.40;91.90;;;;;;5002637;28;20130;-51
2022/09/12 09:26:16;;;;;;;3.25;1.30;;;28.80;92.40;;;;;;4991027;28;20077;-49
2022/09/12 09:28:52;;;;;;;3.83;1.40;;;28.70;93.00;;;;;;5005228;28;20025;-49
2022/09/12 09:31:21;;;;;;;3.38;1.33;;;29.00;92.30;;;;;;5003295;28;20026;-50
2022/09/12 09:33:52;;;;;;;2.28;1.10;;;29.50;91.50;;;;;;5005429;28;20033;-54
2022/09/12 09:36:27;;;;;;;5.65;1.35;;;29.00;90.20;;;;;;5005913;28;20053;-48
2022/09/12 09:39:18;;;;;;;3.33;1.13;;;28.80;91.50;;;;;;5000894;28;20030;-53
2022/09/12 09:42:08;;;;;;;4.63;1.17;;;29.50;91.50;;;;;;5002482;28;20448;-47
2022/09/12 09:44:35;;;;;;;2.67;1.20;;;30.40;89.50;;;;;;4998713;28;20030;-53
2022/09/12 09:47:00;;;;;;;1.77;0.90;;;30.40;89.60;;;;;;5007215;28;20059;-47
2022/09/12 09:49:29;;;;;;;4.20;0.93;;;29.90;89.10;;;;;;5008929;28;20068;-53
2022/09/12 09:51:56;;;;;;;4.93;1.38;;;29.20;90.50;;;;;;5003808;28;20033;-49
2022/09/12 09:54:26;;;;;;;3.35;1.25;;;28.50;91.50;;;;;;4999523;28;20030;-47
2022/09/12 09:56:52;;;;;;;3.03;1.13;;;28.30;91.80;;;;;;4991180;28;20022;-43
2022/09/12 09:59:28;;;;;;;1.83;0.77;;;28.60;91.80;;;;;;4999949;28;20036;-44
2022/09/12 10:01:56;;;;;;;4.38;1.23;;;29.20;92.20;;;;;;5005847;28;20104;-48
2022/09/12 10:04:24;;;;;;;3.20;1.05;;;29.50;90.80;;;;;;5006362;28;20029;-53
2022/09/12 10:06:58;;;;;;;2.38;1.13;;;29.60;90.10;;;;;;5008508;28;20117;-50
2022/09/12 10:09:25;;;;;;;3.25;1.30;;;29.90;88.90;;;;;;4995263;28;20046;-48
2022/09/12 10:11:53;;;;;;;3.10;0.98;;;30.10;89.70;;;;;;4997272;28;20436;-44
2022/09/12 10:14:30;;;;;;;3.08;0.98;;;30.90;90.00;;;;;;5009151;28;20060;-48
2022/09/12 10:16:57;;;;;;;5.53;1.40;;;31.50;86.10;;;;;;5007521;28;20546;-47
2022/09/12 10:19:33;;;;;;;4.07;1.30;;;31.60;85.70;;;;;;5011321;28;20128;-50
2022/09/12 10:22:00;;;;;;;4.80;1.20;;;32.40;84.00;;;;;;5007634;28;20022;-47
2022/09/12 10:24:36;;;;;;;4.70;1.30;;;32.60;82.60;;;;;;4984835;28;20405;-48
2022/09/12 10:27:14;;;;;;;5.55;1.45;;;31.80;80.50;;;;;;5007615;28;20038;-52
2022/09/12 10:30:06;;;;;;;2.83;1.20;;;31.20;84.00;;;;;;5006873;28;20204;-48
2022/09/12 10:32:34;;;;;;;4.25;1.42;;;29.60;85.00;;;;;;4986105;28;20093;-48
2022/09/12 10:35:14;;;;;;;4.68;1.50;;;28.90;88.60;;;;;;4999366;28;20501;-55
2022/09/12 10:37:49;;;;;;;7.22;2.13;;;29.10;92.00;;;;;;5006859;28;20081;-49
2022/09/12 10:40:34;;;;;;;4.00;1.95;;;29.50;90.90;;;;;;5004351;28;20093;-43
2022/09/12 10:43:01;;;;;;;2.70;1.52;;;29.00;90.60;;;;;;5000990;28;20449;-50
2022/09/12 10:45:30;;;;;;;3.78;1.33;;;28.90;91.30;;;;;;5007054;28;20030;-51
2022/09/12 10:47:58;;;;;;;4.43;1.70;;;28.50;92.00;;;;;;5006209;28;20113;-50
2022/09/12 10:50:37;;;;;;;4.93;1.58;;;27.90;91.40;;;;;;5005194;28;20439;-45
2022/09/12 10:53:22;;;;;;;5.07;1.52;;;27.10;92.40;;;;;;5007261;28;20041;-45
2022/09/12 10:56:23;;;;;;;6.15;1.42;;;26.50;94.30;;;;;;5005555;28;20126;-45
2022/09/12 10:59:15;;;;;;;3.55;1.80;;;26.10;95.40;;;;;;5003246;28;20068;-45
2022/09/12 11:01:43;;;;;;;11.25;2.42;;;25.90;95.60;;;;;;5003166;28;20539;-45
2022/09/12 11:04:32;;;;;;;6.30;3.30;;;25.80;96.10;;;;;;5007656;28;20018;-51
2022/09/12 11:06:58;;;;;;;;;;;25.60;96.40;;;;;;5002971;28;20030;-47
2022/09/12 11:09:28;;;;;;;3.63;1.70;;;25.50;96.50;;;;;;4995360;28;19971;-50
2022/09/12 11:12:33;;;;;;;4.40;1.50;;;25.50;96.20;;;;;;5002843;28;20022;-49
2022/09/12 11:15:08;;;;;;;6.10;1.98;;;25.60;97.60;;;;;;4998665;28;20035;-57
2022/09/12 11:17:43;;;;;;;7.47;1.52;;;25.80;97.60;;;;;;4999931;28;20038;-56
2022/09/12 11:20:40;;;;;;;4.50;1.90;;;25.90;98.60;;;;;;4992088;28;20022;-56
2022/09/12 11:23:05;;;;;;;4.03;1.80;;;25.70;96.30;;;;;;4999693;28;20096;-50
2022/09/12 11:25:40;;;;;;;3.88;1.83;;;25.60;97.00;;;;;;4999954;28;20030;-49
2022/09/12 11:28:40;;;;;;;4.50;1.60;;;25.60;97.30;;;;;;5004429;28;20030;-54
2022/09/12 11:31:23;;;;;;;3.88;1.80;;;25.60;97.60;;;;;;4990357;28;20074;-51
2022/09/12 11:33:51;;;;;;;4.25;2.25;;;25.80;98.10;;;;;;5004041;28;20041;-55
2022/09/12 11:36:46;;;;;;;4.82;2.58;;;25.80;97.90;;;;;;4988647;28;20022;-50
2022/09/12 11:39:14;;;;;;;6.25;2.67;;;25.80;97.30;;;;;;5006156;28;20050;-53
2022/09/12 11:41:48;;;;;;;4.63;2.25;;;25.90;97.50;;;;;;5007702;28;20060;-51
2022/09/12 11:44:37;;;;;;;5.13;2.38;;;25.80;98.20;;;;;;5006952;28;20075;-46
2022/09/12 11:47:07;;;;;;;4.93;2.00;;;26.20;97.60;;;;;;5008522;28;20137;-50
2022/09/12 11:49:51;;;;;;;4.38;2.30;;;26.90;98.80;;;;;;5009349;28;20022;-47
2022/09/12 11:52:17;;;;;;;5.35;2.40;;;28.30;97.90;;;;;;5008613;28;20025;-46
2022/09/12 11:55:05;;;;;;;5.53;2.20;;;28.50;94.00;;;;;;5008404;28;20033;-44
2022/09/12 11:57:51;;;;;;;4.28;2.28;;;28.20;96.00;;;;;;5009663;28;20049;-45
2022/09/12 12:00:21;;;;;;;4.82;2.22;;;28.70;95.00;;;;;;5006577;28;20033;-43
2022/09/12 12:03:05;;;;;;;4.35;2.22;;;28.80;94.50;;;;;;5008208;28;20037;-46
2022/09/12 12:05:39;;;;;;;5.72;2.00;;;29.30;94.20;;;;;;5008172;28;20018;-46
2022/09/12 12:08:06;;;;;;;4.25;1.80;;;29.40;93.10;;;;;;4988485;28;20113;-45
2022/09/12 12:10:39;;;;;;;4.28;1.75;;;29.30;92.60;;;;;;5006642;28;20054;-43
2022/09/12 12:13:27;;;;;;;4.18;1.88;;;29.70;92.80;;;;;;5006527;28;20442;-48
2022/09/12 12:16:00;;;;;;;4.65;1.60;;;29.10;93.20;;;;;;5007946;28;20037;-45
2022/09/12 12:18:28;;;;;;;2.80;1.40;;;28.80;92.80;;;;;;5007754;28;20046;-51
2022/09/12 12:20:55;;;;;;;3.05;1.55;;;28.40;92.40;;;;;;5009450;28;20382;-50
2022/09/12 12:23:28;;;;;;;2.55;1.30;;;28.10;93.00;;;;;;5009363;28;20033;-45
2022/09/12 12:25:57;;;;;;;4.60;1.55;;;28.30;92.40;;;;;;4989593;28;20025;-54
2022/09/12 12:28:41;;;;;;;;;;;28.10;92.60;;;;;;5007043;28;20034;-50
2022/09/12 12:31:09;;;;;;;4.35;1.98;;;28.00;93.60;;;;;;5006485;28;19905;-44
2022/09/12 12:33:37;;;;;;;3.33;1.70;;;28.20;93.00;;;;;;5006110;28;20033;-47
2022/09/12 12:36:08;;;;;;;3.45;1.75;;;28.10;94.00;;;;;;5005262;28;20053;-44
2022/09/12 12:38:40;;;;;;;3.45;1.85;;;28.00;94.80;;;;;;4988301;28;20117;-44
2022/09/12 12:41:18;;;;;;;2.83;1.58;;;28.10;93.30;;;;;;4997638;28;20533;-51
2022/09/12 12:43:44;;;;;;;3.95;1.30;;;27.90;92.80;;;;;;4991256;28;20034;-47
2022/09/12 12:46:12;;;;;;;3.83;1.20;;;27.80;92.40;;;;;;4990492;28;20024;-49
2022/09/12 12:48:53;;;;;;;4.25;1.52;;;27.50;92.20;;;;;;5008171;28;20033;-49
2022/09/12 12:51:46;;;;;;;3.80;1.20;;;27.50;92.60;;;;;;5010780;28;20078;-54
2022/09/12 12:54:31;;;;;;;2.25;1.45;;;27.50;93.40;;;;;;5010777;28;20030;-55
2022/09/12 12:57:21;;;;;;;6.65;1.80;;;27.50;93.50;;;;;;5008365;28;20048;-57
2022/09/12 12:59:54;;;;;;;4.78;2.15;;;27.60;92.40;;;;;;5005149;28;20049;-56
2022/09/12 13:02:48;;;;;;;5.80;2.08;;;27.30;93.50;;;;;;5010461;28;20080;-45
2022/09/12 13:05:23;;;;;;;4.70;1.63;;;27.10;94.10;;;;;;5010126;28;20472;-41